Aérodrome :
LOGIN :

S'inscrire | Disclaimer

   EN    FR    IT 

 










Légende :    VFR   VFR Marginal   IFR   IFR Intensif   IFR Très Intensif
Visi : 
Plafond : 
>= 8 km
>= 3000ft
5 à 8 km
1000 à 3000 ft
1500m à 5 km
500 à 1000 ft
800 à 1500m
200 à 500 ft
< 800m
< 200 ft
Symboles :   Orages  Brouillard  Fortes neiges  Fortes précipitations  Vent > 20 kt
SIGMETs :   Divers  Orages  Givrage  Turbulence  Onde Orograph.  Cendres Volcan.






- Altitude de l'aérodrome : 1234 ft
- Code IATA : LUX


ELLX - Luxembourg Findel

DERNIER METAR :
  • 260420Z 08003KT 050V110 0100 R24/0350N FG VV002 01/01 Q1017 NOSIG

METARs EXPIRÉS :
  • 260350Z AUTO 13003KT 0100 R24/0350N FG VV000 01/01 Q1017 NOSIG
  • 260320Z 11003KT 0100 R24/0350N FG VV002 01/01 Q1018 NOSIG
  • 260250Z AUTO 10003KT 060V150 0150 R24/0375N FG VV000 01/01 Q1018 NOSIG
  • 260220Z AUTO 09003KT 060V120 0250 R24/0400N FG VV000 01/01 Q1018 NOSIG
  • 260150Z AUTO VRB02KT 0250 R24/0500N FG VV000 01/01 Q1018 NOSIG

TAF TAF ELLX
Valide du 26 à 00h jusqu'au 27 à 06h UTC


252300Z 2600/2706 18005KT 0200 FG VV001
PROB30
TEMPO 2600/2618 2000 BCFG BKN003
BECMG 2618/2621 1500 PRFG BKN003
BECMG 2702/2704 3000 RA BR BKN005
ATIS : +352 4798 27300
Météo : +352 4798 27010 / 27050



MET'MAP, la Météo Aéronautique d'un coup d'oeil ! - Copyright ORBIFLY Décembre 2007 - Disclaimer

ORBIFLY MET'MAP TEAM :

Programmation & Développement : Alexandra Zaïnal
Sur une idée originale de : Baudouin d'Aumeries
Assistance à la programmation : Marc-Olivier Méhu
Soutien technique & logistique : Manuel Goepfert

Contact : metmap@orbifly.com




SOURCES & CREDITS :

   NOAA